createdAt,value
2022-12-18T00:02:14.714Z,27.19
2022-12-18T00:04:45.140Z,27.21
2022-12-18T00:07:15.329Z,27.25
2022-12-18T00:09:45.438Z,27.25
2022-12-18T00:12:15.528Z,27.27
2022-12-18T00:14:45.970Z,27.32
2022-12-18T00:17:16.128Z,27.31
2022-12-18T00:19:46.170Z,27.35
2022-12-18T00:22:17.126Z,27.31
2022-12-18T00:24:47.229Z,27.32
2022-12-18T00:27:17.652Z,27.31
2022-12-18T00:29:47.792Z,27.40
2022-12-18T00:32:17.813Z,27.32
2022-12-18T00:34:47.847Z,27.35
2022-12-18T00:37:20.444Z,27.34
2022-12-18T00:39:54.253Z,27.36
2022-12-18T00:42:42.586Z,27.36
2022-12-18T00:45:13.378Z,27.31
2022-12-18T00:47:44.093Z,27.33
2022-12-18T00:50:14.640Z,27.30
2022-12-18T00:52:45.801Z,27.33
2022-12-18T00:55:16.360Z,27.34
2022-12-18T00:57:47.718Z,27.42
2022-12-18T01:00:18.634Z,27.42
2022-12-18T01:02:48.999Z,27.42
2022-12-18T01:05:19.681Z,27.36
2022-12-18T01:07:49.836Z,27.36
2022-12-18T01:10:19.802Z,27.39
2022-12-18T01:12:49.881Z,27.44
2022-12-18T01:15:23.744Z,27.40
2022-12-18T01:17:56.669Z,27.42
2022-12-18T01:20:30.360Z,27.43
2022-12-18T01:23:01.193Z,27.42
2022-12-18T01:25:31.374Z,27.43
2022-12-18T01:28:01.419Z,27.44
2022-12-18T01:30:31.548Z,27.43
2022-12-18T01:33:01.499Z,27.45
2022-12-18T01:35:31.494Z,27.45
2022-12-18T01:38:01.505Z,27.42
2022-12-18T01:40:31.773Z,27.43
2022-12-18T01:43:01.911Z,27.46
2022-12-18T01:45:33.820Z,27.46
2022-12-18T01:48:10.413Z,27.45
2022-12-18T01:50:44.992Z,27.50
2022-12-18T01:53:21.318Z,27.48
2022-12-18T01:55:56.747Z,27.50
2022-12-18T01:59:05.714Z,27.48
2022-12-18T02:01:36.916Z,27.49
2022-12-18T02:04:28.616Z,27.49
2022-12-18T02:07:07.967Z,27.52
2022-12-18T02:09:52.135Z,27.53
2022-12-18T02:12:27.908Z,27.48
2022-12-18T02:15:29.947Z,27.53
2022-12-18T02:18:31.744Z,27.55
2022-12-18T02:21:27.127Z,27.52
2022-12-18T02:24:15.599Z,27.51
2022-12-18T02:27:01.964Z,27.55
2022-12-18T02:29:46.573Z,27.56
2022-12-18T02:32:23.545Z,27.55
2022-12-18T02:34:58.551Z,27.57
2022-12-18T02:37:33.298Z,27.62
2022-12-18T02:40:08.124Z,27.62
2022-12-18T02:42:40.394Z,27.60
2022-12-18T02:45:12.871Z,27.57
2022-12-18T02:47:48.545Z,27.61
2022-12-18T02:50:46.217Z,27.61
2022-12-18T02:53:34.070Z,27.64
2022-12-18T02:56:48.508Z,27.61
2022-12-18T02:59:28.760Z,27.64
2022-12-18T03:02:19.661Z,27.61
2022-12-18T03:05:04.805Z,27.63
2022-12-18T03:07:56.987Z,27.65
2022-12-18T03:10:35.792Z,27.63
2022-12-18T03:13:17.821Z,27.68
2022-12-18T03:15:52.878Z,27.64
2022-12-18T03:18:28.421Z,27.64
2022-12-18T03:21:01.898Z,27.64
2022-12-18T03:23:40.191Z,27.66
2022-12-18T03:26:17.235Z,27.65
2022-12-18T03:28:57.964Z,27.66
2022-12-18T03:31:33.492Z,27.64
2022-12-18T03:34:08.505Z,27.66
2022-12-18T03:36:46.965Z,27.65
2022-12-18T03:39:18.921Z,27.68
2022-12-18T03:42:14.160Z,27.68
2022-12-18T03:45:07.010Z,27.69
2022-12-18T03:48:04.842Z,27.73
2022-12-18T03:51:12.534Z,27.71
2022-12-18T03:53:58.609Z,27.70
2022-12-18T03:56:42.492Z,27.74
2022-12-18T03:59:18.615Z,27.71
2022-12-18T04:01:56.555Z,27.71
2022-12-18T04:04:29.313Z,27.73
2022-12-18T04:07:03.810Z,27.73
2022-12-18T04:09:39.277Z,27.72
2022-12-18T04:12:10.365Z,27.75
2022-12-18T04:14:41.005Z,27.72
2022-12-18T04:17:12.807Z,27.72
2022-12-18T04:19:43.220Z,27.74
2022-12-18T04:22:14.514Z,27.76
2022-12-18T04:24:49.377Z,27.77
2022-12-18T04:27:28.145Z,27.78
2022-12-18T04:29:58.582Z,27.78
2022-12-18T04:32:29.036Z,27.78
2022-12-18T04:34:59.304Z,27.77
2022-12-18T04:37:29.640Z,27.77
2022-12-18T04:39:59.913Z,27.78
2022-12-18T04:42:37.511Z,27.77
2022-12-18T04:45:08.102Z,27.78
2022-12-18T04:47:38.322Z,27.78
2022-12-18T04:50:08.995Z,27.78
2022-12-18T04:52:39.218Z,27.78
2022-12-18T04:55:09.556Z,27.79
2022-12-18T04:57:39.532Z,27.78
2022-12-18T05:00:10.329Z,27.84
2022-12-18T05:02:41.181Z,27.84
2022-12-18T05:05:11.939Z,27.83
2022-12-18T05:07:42.229Z,27.83
2022-12-18T05:10:12.954Z,27.81
2022-12-18T05:13:01.484Z,27.84
2022-12-18T05:15:37.214Z,27.83
2022-12-18T05:18:08.227Z,27.85
2022-12-18T05:20:38.498Z,27.83
2022-12-18T05:23:08.483Z,27.83
2022-12-18T05:25:38.456Z,27.83
2022-12-18T05:28:08.520Z,27.85
2022-12-18T05:30:38.551Z,27.86
2022-12-18T05:33:08.514Z,27.85
2022-12-18T05:35:38.432Z,27.85
2022-12-18T05:38:08.397Z,27.87
2022-12-18T05:40:38.389Z,27.87
2022-12-18T05:43:09.672Z,27.86
2022-12-18T05:45:42.839Z,27.87
2022-12-18T05:48:13.351Z,27.88
2022-12-18T05:50:48.581Z,27.88
2022-12-18T05:53:22.384Z,27.88
2022-12-18T05:55:52.548Z,27.89
2022-12-18T05:58:22.941Z,27.89
2022-12-18T06:00:52.943Z,27.90
2022-12-18T06:03:24.493Z,27.92
2022-12-18T06:05:56.968Z,27.91
2022-12-18T06:08:26.993Z,27.90
2022-12-18T06:10:57.005Z,27.92
2022-12-18T06:13:26.937Z,27.91
2022-12-18T06:15:56.926Z,27.94
2022-12-18T06:18:26.953Z,27.95
2022-12-18T06:21:01.043Z,27.95
2022-12-18T06:23:31.292Z,27.93
2022-12-18T06:26:02.454Z,27.96
2022-12-18T06:28:32.584Z,27.97
2022-12-18T06:31:02.655Z,27.96
2022-12-18T06:33:32.923Z,27.95
2022-12-18T06:36:11.347Z,27.96
2022-12-18T06:38:44.894Z,27.93
2022-12-18T06:41:17.773Z,27.95
2022-12-18T06:43:48.418Z,27.96
2022-12-18T06:46:18.901Z,27.98
2022-12-18T06:48:54.076Z,27.98
2022-12-18T06:51:25.621Z,27.97
2022-12-18T06:53:55.349Z,27.98
2022-12-18T06:56:25.387Z,27.97
2022-12-18T06:58:55.965Z,27.98
2022-12-18T07:01:26.383Z,27.97
2022-12-18T07:04:00.969Z,27.99
2022-12-18T07:06:31.178Z,27.99
2022-12-18T07:09:01.455Z,28.00
2022-12-18T07:11:31.614Z,28.02
2022-12-18T07:14:01.713Z,28.00
2022-12-18T07:16:31.925Z,28.03
2022-12-18T07:19:02.062Z,28.02
2022-12-18T07:21:32.256Z,28.03
2022-12-18T07:24:02.357Z,28.03
2022-12-18T07:26:32.389Z,28.04
2022-12-18T07:29:02.547Z,28.03
2022-12-18T07:31:32.848Z,28.03
2022-12-18T07:34:03.032Z,28.03
2022-12-18T07:36:32.989Z,28.04
2022-12-18T07:39:03.008Z,28.04
2022-12-18T07:41:32.950Z,28.03
2022-12-18T07:44:14.073Z,28.05
2022-12-18T07:46:44.235Z,28.06
2022-12-18T07:49:14.342Z,28.04
2022-12-18T07:51:44.344Z,28.04
2022-12-18T07:54:14.356Z,28.05
2022-12-18T07:56:44.427Z,28.06
2022-12-18T07:59:14.451Z,28.06
2022-12-18T08:01:44.561Z,28.06
2022-12-18T08:04:14.575Z,28.07
2022-12-18T08:06:47.750Z,28.08
2022-12-18T08:09:18.515Z,28.07
2022-12-18T08:11:48.406Z,28.07
2022-12-18T08:14:18.277Z,28.09
2022-12-18T08:16:48.247Z,28.09
2022-12-18T08:19:18.266Z,28.07
2022-12-18T08:21:48.306Z,28.08
2022-12-18T08:24:18.184Z,28.08
2022-12-18T08:27:06.792Z,28.08
2022-12-18T08:29:38.593Z,28.07
2022-12-18T08:32:08.909Z,28.08
2022-12-18T08:34:39.149Z,28.07
2022-12-18T08:37:09.258Z,28.09
2022-12-18T08:39:40.333Z,28.03
2022-12-18T08:42:28.877Z,28.04
2022-12-18T08:44:58.986Z,28.11
2022-12-18T08:47:29.221Z,28.07
2022-12-18T08:49:59.293Z,27.98
2022-12-18T08:52:29.329Z,28.00
2022-12-18T08:54:59.139Z,28.09
2022-12-18T08:57:29.038Z,28.01
2022-12-18T08:59:59.066Z,28.01
2022-12-18T09:02:29.142Z,28.03
2022-12-18T09:04:59.306Z,28.06
2022-12-18T09:07:29.279Z,28.04
2022-12-18T09:09:59.147Z,27.99
2022-12-18T09:12:29.108Z,28.03
2022-12-18T09:14:59.637Z,28.00
2022-12-18T09:17:29.764Z,27.97
2022-12-18T09:20:00.349Z,27.95
2022-12-18T09:22:30.371Z,27.99
2022-12-18T09:25:00.243Z,27.91
2022-12-18T09:27:30.295Z,28.07
2022-12-18T09:30:00.465Z,28.08
2022-12-18T09:32:30.507Z,28.03
2022-12-18T09:35:00.404Z,28.16
2022-12-18T09:37:30.300Z,28.13
2022-12-18T09:40:00.162Z,28.13
2022-12-18T09:42:30.403Z,28.04
2022-12-18T09:45:02.365Z,28.07
2022-12-18T09:47:40.306Z,28.10
2022-12-18T09:50:22.580Z,28.06
2022-12-18T09:52:57.145Z,28.00
2022-12-18T09:55:36.614Z,28.03
2022-12-18T09:58:24.290Z,28.00
2022-12-18T10:00:57.564Z,27.96
2022-12-18T10:03:27.760Z,27.97
2022-12-18T10:06:22.569Z,27.99
2022-12-18T10:08:55.732Z,27.92
2022-12-18T10:11:44.165Z,27.91
2022-12-18T10:14:38.060Z,27.98
2022-12-18T10:17:28.022Z,27.85
2022-12-18T10:20:13.371Z,27.88
2022-12-18T10:22:56.676Z,27.98
2022-12-18T10:25:40.228Z,27.84
2022-12-18T10:28:19.283Z,27.95
2022-12-18T10:30:49.767Z,27.90
2022-12-18T10:33:26.589Z,27.78
2022-12-18T10:35:57.910Z,27.75
2022-12-18T10:38:30.740Z,27.80
2022-12-18T10:41:03.541Z,27.79
2022-12-18T10:43:42.287Z,27.80
2022-12-18T10:46:12.428Z,27.91
2022-12-18T10:48:51.679Z,27.84
2022-12-18T10:51:32.361Z,27.69
2022-12-18T10:54:28.441Z,27.73
2022-12-18T10:57:19.174Z,27.62
2022-12-18T11:00:32.338Z,27.64
2022-12-18T11:03:02.650Z,27.70
2022-12-18T11:05:33.993Z,27.52
2022-12-18T11:08:04.950Z,27.49
2022-12-18T11:10:42.258Z,27.59
2022-12-18T11:13:27.369Z,27.56
2022-12-18T11:15:58.604Z,27.53
2022-12-18T11:18:31.527Z,27.47
2022-12-18T11:21:10.588Z,27.44
2022-12-18T11:23:48.260Z,27.43
2022-12-18T11:26:18.471Z,27.43
2022-12-18T11:29:10.587Z,27.46
2022-12-18T11:31:40.861Z,27.48
2022-12-18T11:34:29.474Z,27.48
2022-12-18T11:37:04.296Z,27.52
2022-12-18T11:39:44.261Z,27.52
2022-12-18T11:42:28.954Z,27.52
2022-12-18T11:45:26.936Z,27.55
2022-12-18T11:48:25.016Z,27.48
2022-12-18T11:51:00.625Z,27.52
2022-12-18T11:53:31.832Z,27.54
2022-12-18T11:56:29.873Z,27.56
2022-12-18T11:59:17.873Z,27.60
2022-12-18T12:02:25.679Z,27.60
2022-12-18T12:05:14.273Z,27.61
2022-12-18T12:07:58.516Z,27.64
2022-12-18T12:10:56.455Z,27.53
2022-12-18T12:13:52.398Z,27.52
2022-12-18T12:16:51.365Z,27.29
2022-12-18T12:20:02.279Z,27.41
2022-12-18T12:22:41.360Z,27.30
2022-12-18T12:25:36.570Z,27.32
2022-12-18T12:28:37.365Z,27.31
2022-12-18T12:33:46.054Z,-147.54
2022-12-18T12:36:40.027Z,-147.54
2022-12-18T12:39:17.682Z,-147.54
2022-12-18T12:42:08.566Z,-147.54
2022-12-18T12:44:51.282Z,-147.54
2022-12-18T12:47:31.796Z,-147.54
2022-12-18T12:50:05.950Z,-147.54
2022-12-18T12:52:59.637Z,-147.54
2022-12-18T12:55:32.226Z,-147.54
2022-12-18T12:58:23.159Z,-147.54
2022-12-18T13:01:03.762Z,-147.54
2022-12-18T13:03:46.243Z,-147.54
2022-12-18T13:06:29.407Z,-147.54
2022-12-18T13:09:04.797Z,-147.54
2022-12-18T13:12:06.944Z,-147.54
2022-12-18T13:14:42.296Z,-147.54
2022-12-18T13:17:24.646Z,-147.54
2022-12-18T13:20:14.117Z,-147.54
2022-12-18T13:22:49.975Z,-147.54
2022-12-18T13:25:41.257Z,-147.54
2022-12-18T13:28:19.727Z,-147.54
2022-12-18T13:31:07.652Z,-147.54
2022-12-18T13:36:39.533Z,-147.54
2022-12-18T13:42:11.971Z,-147.54
2022-12-18T13:44:46.606Z,-147.54
2022-12-18T13:47:36.930Z,-147.54
2022-12-18T13:50:35.820Z,-147.54
2022-12-18T13:53:08.561Z,-147.54
2022-12-18T13:55:38.694Z,-147.54
2022-12-18T13:58:09.451Z,-147.54
2022-12-18T14:00:45.068Z,-147.54
2022-12-18T14:03:30.953Z,-147.54
2022-12-18T14:06:09.503Z,-147.54
2022-12-18T14:08:45.050Z,-147.54
2022-12-18T14:11:27.102Z,-147.54
2022-12-18T14:13:59.854Z,-147.54
2022-12-18T14:16:31.996Z,-147.54
2022-12-18T14:19:10.082Z,-147.54
2022-12-18T14:21:53.284Z,-147.54
2022-12-18T14:24:25.054Z,-147.54
2022-12-18T14:26:55.169Z,-147.54
2022-12-18T14:29:30.118Z,-147.54
2022-12-18T14:32:16.615Z,-147.54
2022-12-18T14:34:52.734Z,-147.54
2022-12-18T14:37:29.277Z,-147.54
2022-12-18T14:40:11.042Z,-147.54
2022-12-18T14:42:41.867Z,-147.54
2022-12-18T14:45:42.601Z,-147.54
2022-12-18T14:48:25.311Z,-147.54
2022-12-18T14:51:08.816Z,-147.54
2022-12-18T14:53:47.763Z,-147.54
2022-12-18T14:56:47.947Z,-147.54
2022-12-18T14:59:25.957Z,-147.54
2022-12-18T15:02:23.993Z,-147.54
2022-12-18T15:05:13.115Z,-147.54
2022-12-18T15:07:52.135Z,-147.54
2022-12-18T15:10:28.369Z,-147.54
2022-12-18T15:13:05.657Z,-147.54
2022-12-18T15:15:45.710Z,-147.54
2022-12-18T15:18:24.406Z,-147.54
2022-12-18T15:21:00.443Z,-147.54
2022-12-18T15:23:48.700Z,-147.54
2022-12-18T15:26:20.870Z,-147.54
2022-12-18T15:29:00.685Z,-147.54
2022-12-18T15:31:38.678Z,-147.54
2022-12-18T15:34:11.561Z,-147.54
2022-12-18T15:36:41.828Z,-147.54
2022-12-18T15:39:15.824Z,-147.54
2022-12-18T15:42:06.130Z,-147.54
2022-12-18T15:44:37.162Z,-147.54
2022-12-18T15:47:12.738Z,-147.54
2022-12-18T15:49:43.236Z,-147.54
2022-12-18T15:52:17.337Z,-147.54
2022-12-18T15:55:06.352Z,-147.54
2022-12-18T16:00:22.044Z,-147.54
2022-12-18T16:02:52.413Z,-147.54
2022-12-18T16:05:25.023Z,-147.54
2022-12-18T16:07:55.198Z,-147.54
2022-12-18T16:10:28.664Z,-147.54
2022-12-18T16:12:59.005Z,-147.54
2022-12-18T16:15:28.982Z,-147.54
2022-12-18T16:17:59.132Z,-147.54
2022-12-18T16:20:29.093Z,-147.54
2022-12-18T16:22:59.137Z,-147.54
2022-12-18T16:25:32.575Z,-147.54
2022-12-18T16:28:02.864Z,-147.54
2022-12-18T16:30:38.191Z,-147.54
2022-12-18T16:33:08.919Z,-147.54
2022-12-18T16:35:40.372Z,-147.54
2022-12-18T16:38:10.287Z,-147.54
2022-12-18T16:41:01.575Z,-147.54
2022-12-18T16:46:17.948Z,-147.54
2022-12-18T16:48:48.223Z,-147.54
2022-12-18T16:51:18.321Z,-147.54
2022-12-18T16:53:48.409Z,-147.54
2022-12-18T16:56:18.673Z,-147.54
2022-12-18T16:58:54.633Z,-147.54
2022-12-18T17:01:44.208Z,-147.54
2022-12-18T17:04:14.540Z,-147.54
2022-12-18T17:06:47.196Z,-147.54
2022-12-18T17:09:18.987Z,-147.54
2022-12-18T17:11:49.323Z,-147.54
2022-12-18T17:14:22.179Z,-147.54
2022-12-18T17:17:19.230Z,-147.54
2022-12-18T17:19:42.920Z,-147.54
2022-12-18T17:22:13.265Z,-147.54
2022-12-18T17:24:43.402Z,-147.54
2022-12-18T17:27:13.728Z,-147.54
2022-12-18T17:29:47.729Z,-147.54
2022-12-18T17:32:19.309Z,-147.54
2022-12-18T17:34:49.686Z,-147.54
2022-12-18T17:37:19.864Z,-147.54
2022-12-18T17:39:49.977Z,-147.54
2022-12-18T17:42:19.946Z,-147.54
2022-12-18T17:44:49.883Z,-147.54
2022-12-18T17:47:19.968Z,-147.54
2022-12-18T17:49:49.881Z,-147.54
2022-12-18T17:52:19.771Z,-147.54
2022-12-18T17:54:49.710Z,-147.54
2022-12-18T17:57:21.251Z,-147.54
2022-12-18T17:59:53.483Z,-147.54
2022-12-18T18:02:24.161Z,-147.54
2022-12-18T18:04:54.995Z,-147.54
2022-12-18T18:07:25.055Z,-147.54
2022-12-18T18:09:55.270Z,-147.54
2022-12-18T18:12:43.369Z,-147.54
2022-12-18T18:15:13.824Z,-147.54
2022-12-18T18:17:44.030Z,-147.54
2022-12-18T18:20:19.184Z,-147.54
2022-12-18T18:22:52.598Z,-147.54
2022-12-18T18:25:22.842Z,-147.54
2022-12-18T18:27:53.714Z,-147.54
2022-12-18T18:30:43.307Z,-147.54
2022-12-18T18:33:13.791Z,-147.54
2022-12-18T18:35:54.712Z,-147.54
2022-12-18T18:38:25.417Z,-147.54
2022-12-18T18:41:03.145Z,-147.54
2022-12-18T18:43:33.715Z,-147.54
2022-12-18T18:46:07.139Z,-147.54
2022-12-18T18:48:39.758Z,-147.54
2022-12-18T18:51:21.066Z,-147.54
2022-12-18T18:53:54.228Z,-147.54
2022-12-18T18:56:45.569Z,-147.54
2022-12-18T18:59:16.390Z,-147.54
2022-12-18T19:01:46.534Z,-147.54
2022-12-18T19:04:16.921Z,-147.54
2022-12-18T19:06:48.893Z,-147.54
2022-12-18T19:09:19.720Z,-147.54
2022-12-18T19:12:07.771Z,-147.54
2022-12-18T19:14:37.852Z,-147.54
2022-12-18T19:17:07.706Z,-147.54
2022-12-18T19:19:37.951Z,-147.54
2022-12-18T19:22:09.213Z,-147.54
2022-12-18T19:24:39.767Z,-147.54
2022-12-18T19:27:09.729Z,-147.54
2022-12-18T19:29:39.920Z,-147.54
2022-12-18T19:32:10.210Z,-147.54
2022-12-18T19:34:40.227Z,-147.54
2022-12-18T19:37:10.292Z,-147.54
2022-12-18T19:39:41.028Z,-147.54
2022-12-18T19:42:11.041Z,-147.54
2022-12-18T19:44:40.919Z,-147.54
2022-12-18T19:47:10.862Z,-147.54
2022-12-18T19:49:40.923Z,-147.54
2022-12-18T19:52:11.028Z,-147.54
2022-12-18T19:54:40.982Z,-147.54
2022-12-18T19:57:14.190Z,-147.54
2022-12-18T19:59:44.285Z,-147.54
2022-12-18T20:02:19.617Z,-147.54
2022-12-18T20:04:51.054Z,-147.54
2022-12-18T20:07:21.105Z,-147.54
2022-12-18T20:09:57.095Z,-147.54
2022-12-18T20:12:31.541Z,-147.54
2022-12-18T20:15:01.581Z,-147.54
2022-12-18T20:17:31.388Z,-147.54
2022-12-18T20:20:01.571Z,-147.54
2022-12-18T20:22:32.238Z,-147.54
2022-12-18T20:25:02.141Z,-147.54
2022-12-18T20:27:31.981Z,-147.54
2022-12-18T20:30:01.903Z,-147.54
2022-12-18T20:32:36.910Z,-147.54
2022-12-18T20:35:07.698Z,-147.54
2022-12-18T20:37:39.314Z,-147.54
2022-12-18T20:40:13.158Z,-147.54
2022-12-18T20:42:43.974Z,-147.54
2022-12-18T20:45:13.876Z,-147.54
2022-12-18T20:47:43.709Z,-147.54
2022-12-18T20:50:13.898Z,-147.54
2022-12-18T20:52:43.983Z,-147.54
2022-12-18T20:55:14.145Z,-147.54
2022-12-18T20:57:44.023Z,-147.54
2022-12-18T21:00:15.600Z,-147.54
2022-12-18T21:02:49.583Z,-147.54
2022-12-18T21:05:19.933Z,-147.54
2022-12-18T21:07:49.966Z,-147.54
2022-12-18T21:10:19.847Z,-147.54
2022-12-18T21:13:04.277Z,-147.54
2022-12-18T21:15:36.239Z,-147.54
2022-12-18T21:18:06.534Z,-147.54
2022-12-18T21:20:36.515Z,-147.54
2022-12-18T21:23:16.206Z,-147.54
2022-12-18T21:25:49.801Z,-147.54
2022-12-18T21:28:25.557Z,-147.54
2022-12-18T21:30:55.599Z,-147.54
2022-12-18T21:33:25.421Z,-147.54
2022-12-18T21:35:55.479Z,-147.54
2022-12-18T21:38:25.331Z,-147.54
2022-12-18T21:40:55.213Z,-147.54
2022-12-18T21:43:43.784Z,-147.54
2022-12-18T21:46:14.002Z,-147.54
2022-12-18T21:48:45.541Z,-147.54
2022-12-18T21:51:15.544Z,-147.54
2022-12-18T21:53:45.367Z,-147.54
2022-12-18T21:56:17.180Z,-147.54
2022-12-18T21:58:57.011Z,-147.54
2022-12-18T22:01:33.982Z,-147.54
2022-12-18T22:04:08.005Z,-147.54
2022-12-18T22:06:38.139Z,-147.54
2022-12-18T22:09:08.696Z,-147.54
2022-12-18T22:11:38.854Z,-147.54
2022-12-18T22:14:09.286Z,-147.54
2022-12-18T22:16:39.373Z,-147.54
2022-12-18T22:19:10.572Z,-147.54
2022-12-18T22:21:44.866Z,-147.54
2022-12-18T22:24:25.234Z,-147.54
2022-12-18T22:28:50.801Z,26.57
2022-12-18T22:31:20.827Z,26.49
2022-12-18T22:33:50.884Z,26.45
2022-12-18T22:36:20.950Z,26.48
2022-12-18T22:38:51.995Z,26.44
2022-12-18T22:41:23.775Z,26.43
2022-12-18T22:43:53.688Z,26.48
2022-12-18T22:46:24.235Z,26.43
2022-12-18T22:48:54.402Z,26.48
2022-12-18T22:51:24.376Z,26.48
2022-12-18T22:53:54.462Z,26.28
2022-12-18T22:56:26.187Z,26.07
2022-12-18T22:58:56.206Z,25.98
2022-12-18T23:01:31.526Z,25.87
2022-12-18T23:04:04.103Z,25.85
2022-12-18T23:06:34.163Z,25.80
2022-12-18T23:09:04.854Z,25.80
2022-12-18T23:11:35.371Z,25.78
2022-12-18T23:14:05.775Z,25.81
2022-12-18T23:16:37.303Z,25.87
2022-12-18T23:19:08.386Z,25.89
2022-12-18T23:21:38.627Z,25.92
2022-12-18T23:24:08.932Z,25.97
2022-12-18T23:26:39.523Z,25.94
2022-12-18T23:29:10.186Z,25.98
2022-12-18T23:31:41.821Z,25.99
2022-12-18T23:34:16.000Z,26.04
2022-12-18T23:36:47.434Z,26.01
2022-12-18T23:39:28.923Z,26.02
2022-12-18T23:42:01.410Z,25.99
2022-12-18T23:44:31.107Z,26.01
2022-12-18T23:47:00.967Z,26.04
2022-12-18T23:49:31.124Z,26.00
2022-12-18T23:52:01.516Z,26.02
2022-12-18T23:54:33.421Z,25.97
2022-12-18T23:57:04.266Z,26.03
2022-12-18T23:59:34.270Z,25.96
